Time;durP1;ratioP1;P1;durP2;ratioP2;P2;SDS_P1;SDS_P2;PMS_P1;PMS_P2;Temp;Humidity;BMP_temperature;BMP_pressure;BME280_temperature;BME280_humidity;BME280_pressure;Samples;Min_cycle;Max_cycle;Signal;HPM_P1;HPM_P2
2023/04/30 00:01:55;;;;;;;5.25;4.10;;;14.90;99.90;;;;;;5035296;28;20040;-70
2023/04/30 00:04:21;;;;;;;4.50;3.60;;;14.90;99.90;;;;;;5029431;28;20036;-71
2023/04/30 00:06:46;;;;;;;3.55;3.22;;;14.90;99.90;;;;;;5034321;28;20029;-69
2023/04/30 00:09:12;;;;;;;5.00;4.35;;;14.80;99.90;;;;;;5033014;28;20072;-69
2023/04/30 00:11:38;;;;;;;4.82;3.80;;;14.80;99.90;;;;;;5034416;28;20516;-70
2023/04/30 00:14:03;;;;;;;4.38;3.95;;;14.80;99.90;;;;;;5035844;28;20035;-70
2023/04/30 00:16:29;;;;;;;3.00;2.70;;;14.70;99.90;;;;;;5036159;28;20413;-68
2023/04/30 00:18:54;;;;;;;5.32;4.20;;;14.60;99.90;;;;;;5037056;28;20025;-69
2023/04/30 00:21:20;;;;;;;4.20;3.80;;;14.60;99.90;;;;;;5036394;28;20112;-69
2023/04/30 00:23:46;;;;;;;3.40;3.10;;;14.50;99.90;;;;;;5031485;28;20030;-69
2023/04/30 00:26:11;;;;;;;6.95;4.20;;;14.50;99.90;;;;;;5035709;28;20083;-70
2023/04/30 00:28:37;;;;;;;7.28;3.50;;;14.50;99.90;;;;;;5036883;28;20489;-72
2023/04/30 00:31:05;;;;;;;4.65;3.75;;;14.50;99.90;;;;;;5034274;28;20033;-70
2023/04/30 00:33:31;;;;;;;5.00;3.65;;;14.40;99.90;;;;;;5036361;28;20032;-72
2023/04/30 00:35:57;;;;;;;7.50;3.35;;;14.30;99.90;;;;;;5036368;28;20026;-70
2023/04/30 00:38:23;;;;;;;3.38;3.08;;;14.30;99.90;;;;;;5035857;28;20400;-69
2023/04/30 00:40:49;;;;;;;4.40;4.00;;;14.30;99.90;;;;;;5036909;28;20017;-71
2023/04/30 00:43:14;;;;;;;4.90;3.45;;;14.30;99.90;;;;;;5034246;28;20029;-71
2023/04/30 00:45:40;;;;;;;4.43;3.88;;;14.30;99.90;;;;;;5034970;28;20057;-71
2023/04/30 00:48:06;;;;;;;7.00;3.63;;;14.30;99.90;;;;;;5036415;28;20489;-71
2023/04/30 00:50:34;;;;;;;4.07;3.67;;;14.30;99.90;;;;;;5036394;28;20029;-71
2023/04/30 00:53:00;;;;;;;7.90;3.70;;;14.20;99.90;;;;;;5035579;28;20021;-71
2023/04/30 00:55:26;;;;;;;5.90;4.18;;;14.30;99.90;;;;;;5036427;28;20040;-72
2023/04/30 00:57:52;;;;;;;5.25;4.00;;;14.20;99.90;;;;;;5031753;28;20374;-71
2023/04/30 01:00:18;;;;;;;4.93;4.43;;;14.20;99.90;;;;;;5036399;28;20052;-72
2023/04/30 01:02:43;;;;;;;5.70;4.57;;;14.30;99.90;;;;;;5035918;28;20510;-71
2023/04/30 01:05:09;;;;;;;5.40;4.88;;;14.30;99.90;;;;;;5029307;28;20022;-71
2023/04/30 01:07:37;;;;;;;6.18;4.43;;;14.30;99.90;;;;;;5036060;28;20071;-72
2023/04/30 01:10:04;;;;;;;7.88;4.93;;;14.20;99.90;;;;;;5034688;28;20055;-70
2023/04/30 01:12:48;;;;;;;8.23;5.82;;;14.20;99.90;;;;;;5032271;28;20033;-72
2023/04/30 01:15:48;;;;;;;7.50;5.93;;;14.20;99.90;;;;;;5032837;28;20087;-71
2023/04/30 01:18:34;;;;;;;11.35;7.03;;;14.30;99.90;;;;;;5033650;28;20054;-71
2023/04/30 01:21:07;;;;;;;9.75;5.97;;;14.30;99.90;;;;;;5028279;28;20053;-72
2023/04/30 01:23:51;;;;;;;9.88;8.15;;;14.30;99.90;;;;;;5035982;28;20057;-72
2023/04/30 01:26:37;;;;;;;10.23;8.65;;;14.30;99.90;;;;;;5035197;28;20028;-71
2023/04/30 01:29:04;;;;;;;9.20;8.25;;;14.30;99.90;;;;;;5036690;28;20545;-71
2023/04/30 01:31:30;;;;;;;13.68;9.43;;;14.30;99.90;;;;;;5034006;28;20034;-70
2023/04/30 01:33:55;;;;;;;12.75;10.10;;;14.30;99.90;;;;;;5026144;28;20033;-72
2023/04/30 01:36:44;;;;;;;12.23;10.20;;;14.30;99.90;;;;;;5031298;28;20052;-72
2023/04/30 01:39:34;;;;;;;16.63;10.95;;;14.40;99.90;;;;;;5033331;28;20108;-71
2023/04/30 01:42:20;;;;;;;9.47;7.37;;;14.40;99.90;;;;;;5028032;28;20105;-70
2023/04/30 01:45:04;;;;;;;10.60;9.52;;;14.40;99.90;;;;;;5036776;28;20639;-71
2023/04/30 01:47:52;;;;;;;11.50;10.02;;;14.40;99.90;;;;;;5026019;28;20289;-71
2023/04/30 01:50:32;;;;;;;11.02;9.65;;;14.40;99.90;;;;;;5035903;28;20079;-72
2023/04/30 01:53:01;;;;;;;11.63;9.05;;;14.50;99.90;;;;;;5028156;28;20026;-71
2023/04/30 01:55:34;;;;;;;12.38;9.98;;;14.40;99.90;;;;;;5030814;28;20038;-69
2023/04/30 01:58:04;;;;;;;12.23;7.47;;;14.50;99.90;;;;;;5031870;28;20030;-71
2023/04/30 02:00:30;;;;;;;9.02;8.13;;;14.50;99.90;;;;;;5030764;28;20037;-70
2023/04/30 02:02:56;;;;;;;12.75;9.93;;;14.50;99.90;;;;;;5033830;28;20030;-71
2023/04/30 02:05:22;;;;;;;8.93;7.97;;;14.50;99.90;;;;;;5037477;28;20045;-71
2023/04/30 02:07:49;;;;;;;13.10;8.80;;;14.40;99.90;;;;;;5037146;28;20105;-70
2023/04/30 02:10:17;;;;;;;10.57;8.75;;;14.40;99.90;;;;;;5039921;28;20029;-70
2023/04/30 02:12:42;;;;;;;9.25;8.25;;;14.50;99.90;;;;;;5037945;28;20056;-70
2023/04/30 02:15:09;;;;;;;12.23;9.65;;;14.40;99.90;;;;;;5031320;28;20749;-69
2023/04/30 02:17:34;;;;;;;9.23;8.32;;;14.50;99.90;;;;;;5036634;28;20548;-69
2023/04/30 02:20:01;;;;;;;12.07;10.15;;;14.50;99.90;;;;;;5038588;28;20714;-70
2023/04/30 02:22:26;;;;;;;11.48;8.13;;;14.50;99.90;;;;;;5039613;28;20513;-72
2023/04/30 02:24:54;;;;;;;8.98;6.65;;;14.40;99.90;;;;;;5038337;28;20044;-70
2023/04/30 02:27:21;;;;;;;11.52;8.25;;;14.50;99.90;;;;;;5038971;28;20025;-70
2023/04/30 02:29:47;;;;;;;9.25;8.27;;;14.50;99.90;;;;;;5038327;28;20112;-70
2023/04/30 02:32:13;;;;;;;8.40;7.60;;;14.50;99.90;;;;;;5038830;28;20071;-70
2023/04/30 02:34:39;;;;;;;11.57;7.50;;;14.50;99.90;;;;;;5037165;28;20041;-71
2023/04/30 02:37:05;;;;;;;8.80;7.90;;;14.50;99.90;;;;;;5030347;28;20034;-71
2023/04/30 02:39:31;;;;;;;12.90;8.65;;;14.50;99.90;;;;;;5036704;28;20048;-70
2023/04/30 02:41:57;;;;;;;12.68;8.52;;;14.50;99.90;;;;;;5037044;28;20026;-69
2023/04/30 02:44:23;;;;;;;8.43;7.63;;;14.40;99.90;;;;;;5039904;28;20029;-69
2023/04/30 02:46:48;;;;;;;10.38;7.97;;;14.40;99.90;;;;;;5038158;28;20059;-70
2023/04/30 02:49:14;;;;;;;9.73;8.70;;;14.40;99.90;;;;;;5039110;28;20030;-70
2023/04/30 02:51:39;;;;;;;13.05;9.30;;;14.40;99.90;;;;;;5034470;28;20026;-69
2023/04/30 02:54:05;;;;;;;10.13;7.82;;;14.40;99.90;;;;;;5026068;28;20041;-69
2023/04/30 02:56:31;;;;;;;11.35;7.78;;;14.40;99.90;;;;;;5035073;28;20032;-70
2023/04/30 02:58:57;;;;;;;8.35;6.85;;;14.40;99.90;;;;;;5038758;28;20017;-72
2023/04/30 03:01:22;;;;;;;8.43;7.57;;;14.40;99.90;;;;;;5037610;28;20044;-70
2023/04/30 03:03:48;;;;;;;10.07;7.53;;;14.40;99.90;;;;;;5035950;28;20036;-70
2023/04/30 03:06:14;;;;;;;8.40;7.60;;;14.40;99.90;;;;;;5037072;28;20033;-70
2023/04/30 03:08:39;;;;;;;8.20;6.40;;;14.40;99.90;;;;;;5032271;28;20022;-69
2023/04/30 03:11:05;;;;;;;7.18;6.50;;;14.50;99.90;;;;;;5035464;28;20175;-71
2023/04/30 03:13:30;;;;;;;8.40;7.50;;;14.40;99.90;;;;;;5038335;28;20037;-70
2023/04/30 03:16:00;;;;;;;8.07;7.13;;;14.40;99.90;;;;;;5037434;28;20056;-70
2023/04/30 03:18:27;;;;;;;8.20;7.20;;;14.40;99.90;;;;;;5038135;28;20053;-69
2023/04/30 03:20:53;;;;;;;7.63;6.70;;;14.40;99.90;;;;;;5037903;28;20061;-70
2023/04/30 03:23:18;;;;;;;9.55;7.45;;;14.40;99.90;;;;;;5027323;28;20513;-69
2023/04/30 03:25:44;;;;;;;7.20;6.45;;;14.40;99.90;;;;;;5038305;28;20057;-70
2023/04/30 03:28:10;;;;;;;7.22;6.05;;;14.40;99.90;;;;;;5038710;28;20080;-68
2023/04/30 03:30:35;;;;;;;7.68;6.88;;;14.40;99.90;;;;;;5030982;28;20124;-69
2023/04/30 03:33:01;;;;;;;9.35;6.20;;;14.40;99.90;;;;;;5033052;28;20033;-69
2023/04/30 03:35:27;;;;;;;6.90;6.20;;;14.40;99.90;;;;;;5035086;28;20029;-68
2023/04/30 03:37:52;;;;;;;8.85;6.57;;;14.40;99.90;;;;;;5026612;28;20030;-69
2023/04/30 03:40:18;;;;;;;7.60;6.00;;;14.50;99.90;;;;;;5032753;28;20029;-68
2023/04/30 03:42:44;;;;;;;8.73;6.65;;;14.40;99.90;;;;;;5036760;28;20048;-68
2023/04/30 03:45:10;;;;;;;8.35;7.55;;;14.40;99.90;;;;;;5036915;28;20023;-69
2023/04/30 03:47:36;;;;;;;10.00;6.60;;;14.40;99.90;;;;;;5037702;28;20033;-69
2023/04/30 03:50:02;;;;;;;10.25;7.32;;;14.40;99.90;;;;;;5028299;28;20105;-70
2023/04/30 03:52:29;;;;;;;8.13;6.68;;;14.40;99.90;;;;;;5035767;28;20088;-68
2023/04/30 03:54:54;;;;;;;9.13;6.97;;;14.40;99.90;;;;;;5036487;28;20018;-69
2023/04/30 03:57:21;;;;;;;8.27;7.25;;;14.40;99.90;;;;;;5036610;28;20482;-68
2023/04/30 03:59:46;;;;;;;9.38;8.32;;;14.40;99.90;;;;;;5037909;28;20030;-70
2023/04/30 04:02:12;;;;;;;10.40;7.43;;;14.40;99.90;;;;;;5037639;28;20038;-69
2023/04/30 04:04:38;;;;;;;8.75;7.88;;;14.40;99.90;;;;;;5033186;28;20028;-69
2023/04/30 04:07:06;;;;;;;9.02;7.45;;;14.40;99.90;;;;;;5036198;28;20021;-69
2023/04/30 04:09:32;;;;;;;6.93;5.57;;;14.40;99.90;;;;;;5033019;28;20022;-69
2023/04/30 04:11:57;;;;;;;7.18;6.47;;;14.40;99.90;;;;;;5034046;28;20544;-68
2023/04/30 04:14:23;;;;;;;8.07;5.22;;;14.40;99.90;;;;;;5032784;28;20064;-69
2023/04/30 04:16:49;;;;;;;8.07;7.28;;;14.40;99.90;;;;;;5029458;28;20065;-69
2023/04/30 04:19:14;;;;;;;8.35;7.45;;;14.40;99.90;;;;;;5029685;28;20057;-68
2023/04/30 04:21:40;;;;;;;9.63;7.10;;;14.40;99.90;;;;;;5036052;28;20057;-69
2023/04/30 04:24:07;;;;;;;8.25;7.00;;;14.40;99.90;;;;;;5036118;28;20026;-68
2023/04/30 04:26:36;;;;;;;10.95;7.32;;;14.40;99.90;;;;;;5025817;28;20029;-68
2023/04/30 04:29:03;;;;;;;7.40;6.45;;;14.40;99.90;;;;;;5042218;28;20025;-69
2023/04/30 04:31:30;;;;;;;7.35;6.05;;;14.40;99.90;;;;;;5033177;28;20034;-68
2023/04/30 04:33:59;;;;;;;11.25;7.20;;;14.40;99.90;;;;;;5036284;28;20025;-68
2023/04/30 04:36:27;;;;;;;9.30;7.15;;;14.40;99.90;;;;;;5036143;28;20112;-69
2023/04/30 04:38:53;;;;;;;8.63;7.68;;;14.30;99.90;;;;;;5032562;28;20029;-69
2023/04/30 04:41:19;;;;;;;8.02;7.00;;;14.30;99.90;;;;;;5032047;28;20437;-70
2023/04/30 04:43:45;;;;;;;8.77;7.55;;;14.20;99.90;;;;;;5035570;28;20025;-68
2023/04/30 04:46:11;;;;;;;13.65;7.57;;;14.20;99.90;;;;;;5035644;28;20029;-69
2023/04/30 04:48:36;;;;;;;9.88;7.75;;;14.20;99.90;;;;;;5037883;28;20029;-69
2023/04/30 04:51:02;;;;;;;10.50;8.02;;;14.10;99.90;;;;;;5035756;28;20040;-68
2023/04/30 04:53:28;;;;;;;10.05;8.23;;;14.10;99.90;;;;;;5034380;28;20093;-69
2023/04/30 04:55:53;;;;;;;10.15;7.97;;;14.10;99.90;;;;;;5037503;28;20036;-69
2023/04/30 04:58:19;;;;;;;10.50;8.15;;;14.10;99.90;;;;;;5035968;28;20166;-70
2023/04/30 05:00:45;;;;;;;10.20;8.95;;;14.10;99.90;;;;;;5037409;28;20033;-69
2023/04/30 05:03:11;;;;;;;16.73;8.38;;;14.00;99.90;;;;;;5034985;28;20486;-69
2023/04/30 05:05:36;;;;;;;11.80;8.50;;;14.00;99.90;;;;;;5022693;28;20034;-69
2023/04/30 05:08:02;;;;;;;12.45;7.70;;;14.10;99.90;;;;;;5033511;28;20025;-69
2023/04/30 05:10:27;;;;;;;10.43;8.82;;;14.00;99.90;;;;;;5032434;28;20034;-69
2023/04/30 05:12:53;;;;;;;12.43;9.57;;;14.00;99.90;;;;;;5036471;28;20080;-70
2023/04/30 05:15:19;;;;;;;9.70;8.48;;;14.00;99.90;;;;;;5029622;28;20044;-70
2023/04/30 05:17:45;;;;;;;9.23;7.85;;;14.00;99.90;;;;;;5028502;28;20091;-69
2023/04/30 05:20:11;;;;;;;12.15;8.43;;;14.00;99.90;;;;;;5036224;28;20034;-69
2023/04/30 05:22:37;;;;;;;12.35;8.00;;;14.00;99.90;;;;;;5028127;28;20097;-69
2023/04/30 05:25:03;;;;;;;11.00;9.60;;;14.10;99.90;;;;;;5034156;28;20026;-69
2023/04/30 05:27:29;;;;;;;11.63;9.20;;;14.10;99.90;;;;;;5032724;28;20036;-69
2023/04/30 05:29:54;;;;;;;11.18;9.30;;;14.10;99.90;;;;;;5023671;28;20038;-69
2023/04/30 05:32:21;;;;;;;12.32;9.02;;;14.10;99.90;;;;;;5024994;28;20076;-69
2023/04/30 05:34:47;;;;;;;14.32;10.00;;;14.10;99.90;;;;;;5032221;28;20409;-69
2023/04/30 05:37:13;;;;;;;14.20;8.77;;;14.10;99.90;;;;;;5035973;28;20100;-69
2023/04/30 05:39:39;;;;;;;11.05;8.30;;;14.10;99.90;;;;;;5034480;28;20171;-68
2023/04/30 05:42:05;;;;;;;16.58;10.30;;;14.20;99.90;;;;;;5035592;28;20044;-69
2023/04/30 05:44:30;;;;;;;13.90;9.02;;;14.20;99.90;;;;;;5034762;28;20025;-69
2023/04/30 05:46:56;;;;;;;10.63;8.63;;;14.10;99.90;;;;;;5032775;28;20017;-72
2023/04/30 05:49:22;;;;;;;11.82;8.57;;;14.20;99.90;;;;;;5027537;28;20507;-68
2023/04/30 05:51:47;;;;;;;10.65;9.52;;;14.20;99.90;;;;;;5035941;28;20397;-68
2023/04/30 05:54:13;;;;;;;13.27;10.20;;;14.20;99.90;;;;;;5035633;28;20034;-68
2023/04/30 05:56:38;;;;;;;11.88;9.40;;;14.20;99.90;;;;;;5033938;28;20025;-70
2023/04/30 05:59:04;;;;;;;11.27;8.23;;;14.20;99.90;;;;;;5034980;28;20034;-70
2023/04/30 06:01:30;;;;;;;12.13;8.23;;;14.20;99.90;;;;;;5027133;28;20057;-70
2023/04/30 06:03:55;;;;;;;15.85;8.32;;;14.20;99.90;;;;;;5031785;28;20133;-68
2023/04/30 06:06:21;;;;;;;9.55;8.45;;;14.20;99.90;;;;;;5034687;28;20129;-69
2023/04/30 06:08:47;;;;;;;9.77;8.10;;;14.20;99.90;;;;;;5029696;28;20049;-68
2023/04/30 06:11:12;;;;;;;12.80;7.20;;;14.30;99.90;;;;;;5034353;28;20379;-68
2023/04/30 06:13:39;;;;;;;11.30;7.57;;;14.30;99.90;;;;;;5024368;28;20025;-70
2023/04/30 06:16:06;;;;;;;13.48;9.00;;;14.30;99.90;;;;;;5033360;28;20095;-68
2023/04/30 06:18:32;;;;;;;14.40;9.55;;;14.30;99.90;;;;;;5035518;28;20037;-69
2023/04/30 06:20:58;;;;;;;7.00;6.18;;;14.30;99.90;;;;;;5035693;28;20030;-69
2023/04/30 06:23:23;;;;;;;11.60;8.40;;;14.30;99.90;;;;;;5034343;28;20025;-69
2023/04/30 06:25:49;;;;;;;9.98;8.32;;;14.40;99.90;;;;;;5036559;28;20036;-68
2023/04/30 06:28:15;;;;;;;11.27;7.65;;;14.30;99.90;;;;;;5035067;28;20048;-68
2023/04/30 06:30:40;;;;;;;12.82;8.32;;;14.30;99.90;;;;;;5034208;28;20413;-69
2023/04/30 06:33:06;;;;;;;10.35;8.23;;;14.30;99.90;;;;;;5034164;28;20434;-69
2023/04/30 06:35:32;;;;;;;13.18;8.43;;;14.40;99.90;;;;;;5035680;28;20033;-68
2023/04/30 06:37:58;;;;;;;15.43;8.80;;;14.30;99.90;;;;;;5034366;28;20029;-69
2023/04/30 06:40:23;;;;;;;13.25;8.35;;;14.30;99.90;;;;;;5034402;28;20393;-70
2023/04/30 06:42:49;;;;;;;12.70;9.77;;;14.30;99.90;;;;;;5032779;28;20034;-69
2023/04/30 06:45:14;;;;;;;15.27;9.80;;;14.40;99.90;;;;;;5023356;28;20029;-69
2023/04/30 06:47:41;;;;;;;16.27;11.18;;;14.40;99.90;;;;;;5036622;28;20056;-70
2023/04/30 06:50:07;;;;;;;20.83;10.68;;;14.50;99.90;;;;;;5038910;28;20155;-69
2023/04/30 06:52:33;;;;;;;15.82;10.10;;;14.50;99.90;;;;;;5036972;28;20064;-70
2023/04/30 06:54:59;;;;;;;15.55;9.82;;;14.60;99.90;;;;;;5036679;28;20478;-68
2023/04/30 06:57:26;;;;;;;12.80;10.63;;;14.60;99.90;;;;;;5037267;28;20109;-69
2023/04/30 06:59:52;;;;;;;21.95;9.95;;;14.60;99.90;;;;;;5037722;28;20025;-69
2023/04/30 07:02:18;;;;;;;14.35;8.65;;;14.70;99.90;;;;;;5025252;28;20109;-69
2023/04/30 07:04:43;;;;;;;13.05;11.07;;;14.70;99.90;;;;;;5037369;28;20061;-69
2023/04/30 07:07:09;;;;;;;14.05;9.07;;;14.70;99.90;;;;;;5034203;28;20022;-69
2023/04/30 07:09:35;;;;;;;14.30;10.65;;;14.70;99.90;;;;;;5038491;28;20037;-69
2023/04/30 07:12:01;;;;;;;13.18;8.55;;;14.70;99.90;;;;;;5030083;28;20037;-68
2023/04/30 07:14:27;;;;;;;17.45;10.73;;;14.70;99.90;;;;;;5036679;28;20030;-69
2023/04/30 07:16:52;;;;;;;15.02;8.95;;;14.70;99.90;;;;;;5024662;28;20156;-69
2023/04/30 07:19:19;;;;;;;16.15;9.60;;;14.70;99.90;;;;;;5033520;28;20049;-68
2023/04/30 07:21:45;;;;;;;11.77;8.88;;;14.70;99.90;;;;;;5025680;28;20025;-70
2023/04/30 07:24:10;;;;;;;12.43;8.43;;;14.70;99.90;;;;;;5037277;28;20497;-69
2023/04/30 07:26:36;;;;;;;10.85;8.90;;;14.80;99.90;;;;;;5038320;28;20044;-70
2023/04/30 07:29:03;;;;;;;13.27;10.27;;;14.90;99.90;;;;;;5037115;28;20509;-70
2023/04/30 07:31:29;;;;;;;16.63;8.88;;;15.00;99.90;;;;;;5029889;28;20498;-71
2023/04/30 07:33:54;;;;;;;14.10;8.38;;;15.10;99.90;;;;;;5034585;28;20053;-71
2023/04/30 07:36:21;;;;;;;14.25;9.50;;;15.00;99.90;;;;;;5037736;28;20034;-72
2023/04/30 07:38:46;;;;;;;10.95;8.40;;;15.00;99.90;;;;;;5033066;28;20032;-71
2023/04/30 07:41:12;;;;;;;7.38;5.05;;;15.00;99.90;;;;;;5033377;28;20120;-72
2023/04/30 07:43:38;;;;;;;9.48;7.53;;;14.90;99.90;;;;;;5042020;28;20018;-71
2023/04/30 07:46:04;;;;;;;7.90;6.70;;;14.90;99.90;;;;;;5037485;28;20053;-71
2023/04/30 07:48:30;;;;;;;10.38;6.18;;;14.90;99.90;;;;;;5025876;28;20034;-71
2023/04/30 07:50:56;;;;;;;9.63;7.07;;;15.00;99.90;;;;;;5036663;28;20847;-71
2023/04/30 07:53:25;;;;;;;8.93;6.55;;;15.10;99.90;;;;;;5030314;28;20104;-72
2023/04/30 07:55:50;;;;;;;10.07;6.55;;;15.10;99.90;;;;;;5036691;28;20026;-71
2023/04/30 07:58:16;;;;;;;10.85;5.85;;;15.10;99.90;;;;;;5034183;28;20151;-71
2023/04/30 08:00:42;;;;;;;7.80;5.88;;;15.10;99.90;;;;;;5039658;28;20033;-72
2023/04/30 08:03:07;;;;;;;9.00;6.13;;;15.10;99.90;;;;;;5036600;28;20021;-72
2023/04/30 08:05:33;;;;;;;7.30;5.88;;;15.10;99.90;;;;;;5035361;28;20032;-72
2023/04/30 08:07:59;;;;;;;8.43;4.40;;;15.10;99.90;;;;;;5036040;28;20075;-71
2023/04/30 08:10:25;;;;;;;6.28;5.68;;;15.10;99.90;;;;;;5034703;28;20104;-72
2023/04/30 08:12:51;;;;;;;6.40;4.30;;;15.20;99.90;;;;;;5036748;28;20053;-71
2023/04/30 08:15:20;;;;;;;4.88;3.50;;;15.40;99.90;;;;;;5037448;28;20029;-73
2023/04/30 08:17:50;;;;;;;3.55;3.22;;;15.60;99.90;;;;;;5035077;28;20061;-72
2023/04/30 08:20:16;;;;;;;3.55;3.00;;;15.80;99.90;;;;;;5035548;28;20026;-71
2023/04/30 08:22:42;;;;;;;4.13;2.78;;;16.00;99.90;;;;;;5036531;28;20018;-72
2023/04/30 08:25:11;;;;;;;3.28;2.95;;;16.20;99.90;;;;;;5036079;28;20029;-71
2023/04/30 08:27:38;;;;;;;4.63;3.22;;;16.20;99.90;;;;;;5033109;28;20029;-73
2023/04/30 08:30:05;;;;;;;4.50;3.30;;;16.30;99.90;;;;;;5033932;28;20040;-73
2023/04/30 08:32:32;;;;;;;4.70;3.53;;;16.30;99.90;;;;;;5036575;28;20026;-74
2023/04/30 08:34:58;;;;;;;5.38;3.67;;;16.10;99.90;;;;;;5036872;28;20060;-73
2023/04/30 08:37:24;;;;;;;5.57;3.53;;;15.90;99.90;;;;;;5036154;28;20025;-73
2023/04/30 08:39:49;;;;;;;6.15;4.55;;;15.70;99.90;;;;;;5033463;28;20033;-73
2023/04/30 08:42:17;;;;;;;5.57;4.55;;;15.50;99.90;;;;;;5032661;28;20029;-71
2023/04/30 08:44:45;;;;;;;5.28;4.78;;;15.40;99.90;;;;;;5034631;28;20089;-73
2023/04/30 08:47:14;;;;;;;6.57;4.47;;;15.30;99.90;;;;;;5034855;28;20025;-72
2023/04/30 08:49:40;;;;;;;7.78;5.05;;;15.40;99.90;;;;;;5035075;28;20024;-74
2023/04/30 08:52:07;;;;;;;8.10;4.80;;;15.40;99.90;;;;;;5035113;28;20100;-72
2023/04/30 08:54:35;;;;;;;5.35;4.53;;;15.40;99.90;;;;;;5036614;28;20025;-72
2023/04/30 08:57:01;;;;;;;11.57;4.70;;;15.40;99.90;;;;;;5035943;28;20097;-71
2023/04/30 08:59:27;;;;;;;9.15;4.43;;;15.30;99.90;;;;;;5032110;28;20021;-72
2023/04/30 09:01:52;;;;;;;6.60;5.13;;;15.20;99.90;;;;;;5037439;28;20018;-72
2023/04/30 09:04:18;;;;;;;7.05;4.72;;;15.20;99.90;;;;;;5037608;28;20032;-73
2023/04/30 09:06:44;;;;;;;7.28;5.00;;;15.10;99.90;;;;;;5027093;28;20013;-72
2023/04/30 09:09:14;;;;;;;6.75;5.10;;;15.10;99.90;;;;;;5034738;28;20025;-72
2023/04/30 09:11:41;;;;;;;9.25;5.28;;;15.00;99.90;;;;;;5028879;28;20029;-73
2023/04/30 09:14:07;;;;;;;10.52;5.22;;;15.00;99.90;;;;;;5036130;28;20029;-73
2023/04/30 09:16:49;;;;;;;8.00;6.38;;;14.90;99.90;;;;;;5036902;28;20119;-73
2023/04/30 09:19:29;;;;;;;11.32;6.32;;;14.90;99.90;;;;;;5030605;28;20029;-73
2023/04/30 09:21:56;;;;;;;7.07;5.63;;;14.80;99.90;;;;;;5035879;28;20087;-72
2023/04/30 09:24:22;;;;;;;9.30;6.70;;;14.80;99.90;;;;;;5036550;28;20441;-72
2023/04/30 09:26:49;;;;;;;10.00;7.18;;;14.70;99.90;;;;;;5037056;28;20013;-73
2023/04/30 09:29:15;;;;;;;8.20;7.32;;;14.70;99.90;;;;;;5036759;28;20017;-71
2023/04/30 09:31:47;;;;;;;8.10;6.35;;;14.70;99.90;;;;;;5036506;28;20512;-71
2023/04/30 09:34:13;;;;;;;13.88;7.90;;;14.80;99.90;;;;;;5028979;28;20041;-73
2023/04/30 09:36:56;;;;;;;11.20;6.93;;;14.80;99.90;;;;;;5037938;28;20379;-73
2023/04/30 09:39:22;;;;;;;11.48;6.90;;;15.00;99.90;;;;;;5033961;28;20038;-71
2023/04/30 09:41:50;;;;;;;10.05;7.38;;;15.00;99.90;;;;;;5038669;28;20032;-71
2023/04/30 09:44:35;;;;;;;10.20;6.55;;;15.10;99.90;;;;;;5036853;28;20026;-72
2023/04/30 09:47:02;;;;;;;9.63;7.18;;;15.10;99.90;;;;;;5036606;28;20018;-72
2023/04/30 09:49:27;;;;;;;8.07;6.63;;;15.20;99.90;;;;;;5035795;28;20022;-72
2023/04/30 09:51:58;;;;;;;8.77;7.03;;;15.20;99.90;;;;;;5035723;28;20029;-72
2023/04/30 09:54:30;;;;;;;11.45;7.22;;;15.20;99.90;;;;;;5028407;28;20044;-72
2023/04/30 09:56:58;;;;;;;11.82;7.10;;;15.20;99.90;;;;;;5029969;28;20393;-71
2023/04/30 09:59:35;;;;;;;9.40;6.38;;;15.00;99.90;;;;;;5036543;28;20028;-72
2023/04/30 10:02:07;;;;;;;8.68;7.28;;;15.00;99.90;;;;;;5031594;28;20041;-71
2023/04/30 10:04:40;;;;;;;11.50;9.25;;;14.90;99.90;;;;;;5032413;28;20068;-72
2023/04/30 10:07:18;;;;;;;8.52;7.07;;;15.00;99.90;;;;;;5032823;28;20109;-70
2023/04/30 10:10:08;;;;;;;11.27;8.15;;;15.10;99.90;;;;;;5035024;28;20021;-71
2023/04/30 10:12:42;;;;;;;9.82;7.47;;;15.10;99.90;;;;;;5023600;28;20045;-71
2023/04/30 10:15:16;;;;;;;10.93;8.43;;;15.20;99.90;;;;;;5028673;28;20025;-69
2023/04/30 10:17:45;;;;;;;8.70;6.47;;;15.10;99.90;;;;;;5031600;28;20061;-73
2023/04/30 10:20:12;;;;;;;12.38;8.20;;;15.10;99.90;;;;;;5035589;28;20042;-72
2023/04/30 10:22:40;;;;;;;12.65;8.68;;;15.00;99.90;;;;;;5036613;28;20035;-72
2023/04/30 10:25:10;;;;;;;12.52;8.60;;;15.00;99.90;;;;;;5030110;28;20052;-70
2023/04/30 10:27:36;;;;;;;14.38;8.77;;;15.00;99.90;;;;;;5040089;28;20040;-70
2023/04/30 10:30:01;;;;;;;14.93;9.80;;;14.90;99.90;;;;;;5040193;28;20025;-70
2023/04/30 10:32:37;;;;;;;11.63;8.20;;;14.90;99.90;;;;;;5048538;28;20045;-74
2023/04/30 10:35:21;;;;;;;18.85;10.43;;;15.10;99.90;;;;;;5039922;28;20025;-71
2023/04/30 10:37:56;;;;;;;12.23;9.07;;;15.20;99.90;;;;;;5040311;28;20022;-70
2023/04/30 10:40:25;;;;;;;14.82;10.10;;;15.30;99.90;;;;;;5040057;28;20034;-70
2023/04/30 10:42:53;;;;;;;13.05;9.75;;;15.30;99.90;;;;;;5039787;28;20490;-69
2023/04/30 10:45:36;;;;;;;10.77;9.57;;;15.20;99.90;;;;;;5039371;28;20068;-70
2023/04/30 10:48:03;;;;;;;16.23;11.00;;;15.30;99.90;;;;;;5039829;28;20485;-70
2023/04/30 10:50:29;;;;;;;18.35;10.88;;;15.50;99.90;;;;;;5040135;28;20811;-70
2023/04/30 10:53:02;;;;;;;16.60;11.07;;;15.60;99.90;;;;;;5037577;28;20132;-71
2023/04/30 10:55:29;;;;;;;12.80;9.43;;;15.60;99.90;;;;;;5039430;28;20486;-70
2023/04/30 10:57:57;;;;;;;11.85;8.32;;;15.50;99.90;;;;;;5028704;28;20424;-70
2023/04/30 11:00:27;;;;;;;12.68;9.30;;;15.60;99.90;;;;;;5039618;28;20443;-69
2023/04/30 11:03:02;;;;;;;17.67;11.50;;;15.70;99.90;;;;;;5039833;28;20433;-69
2023/04/30 11:05:38;;;;;;;13.80;10.68;;;15.70;99.90;;;;;;5037307;28;20401;-68
2023/04/30 11:08:05;;;;;;;17.13;10.88;;;15.70;99.90;;;;;;5039893;28;20101;-68
2023/04/30 11:10:34;;;;;;;17.20;9.15;;;15.80;99.90;;;;;;5036444;28;20076;-68
2023/04/30 11:13:05;;;;;;;16.30;10.88;;;16.00;99.90;;;;;;5036369;28;20477;-68
2023/04/30 11:15:33;;;;;;;;;;;16.10;99.90;;;;;;5038315;28;20042;-69
2023/04/30 11:17:59;;;;;;;18.05;10.32;;;16.30;99.90;;;;;;5038285;28;19917;-69
2023/04/30 11:20:25;;;;;;;18.40;10.10;;;16.30;99.90;;;;;;5038304;28;20028;-69
2023/04/30 11:23:14;;;;;;;17.35;10.45;;;16.30;99.90;;;;;;5039396;28;20028;-69
2023/04/30 11:25:53;;;;;;;15.63;9.95;;;16.30;99.90;;;;;;5038007;28;20497;-69
2023/04/30 11:28:25;;;;;;;12.00;9.88;;;16.40;99.90;;;;;;5039082;28;20409;-69
2023/04/30 11:30:55;;;;;;;20.95;9.63;;;16.30;99.90;;;;;;5037235;28;20090;-69
2023/04/30 11:33:26;;;;;;;11.52;8.60;;;16.20;99.90;;;;;;5037531;28;20036;-69
2023/04/30 11:35:54;;;;;;;22.73;10.25;;;16.00;99.90;;;;;;5032142;28;20535;-68
2023/04/30 11:38:34;;;;;;;14.30;9.30;;;16.00;99.90;;;;;;5036976;28;20126;-69
2023/04/30 11:41:03;;;;;;;19.60;8.83;;;16.00;99.90;;;;;;5039084;28;20112;-68
2023/04/30 11:43:31;;;;;;;14.25;9.27;;;16.00;99.90;;;;;;5038883;28;20017;-69
2023/04/30 11:46:04;;;;;;;12.93;8.27;;;16.10;99.90;;;;;;5037769;28;20099;-68
2023/04/30 11:48:34;;;;;;;12.50;9.00;;;16.00;99.90;;;;;;5034444;28;20103;-69
2023/04/30 11:51:06;;;;;;;12.38;8.43;;;16.10;99.90;;;;;;5035063;28;20021;-68
2023/04/30 11:53:31;;;;;;;13.98;8.23;;;16.10;99.90;;;;;;5038710;28;20026;-68
2023/04/30 11:56:01;;;;;;;13.10;8.77;;;16.10;99.90;;;;;;5037417;28;20564;-69
2023/04/30 11:58:31;;;;;;;13.47;8.17;;;16.30;99.90;;;;;;5037858;28;20033;-69
2023/04/30 12:00:59;;;;;;;15.00;8.57;;;16.40;99.90;;;;;;5038631;28;20363;-69
2023/04/30 12:03:25;;;;;;;15.30;7.55;;;16.70;99.90;;;;;;5036120;28;20025;-68
2023/04/30 12:05:50;;;;;;;13.85;7.75;;;16.90;99.90;;;;;;5037841;28;20022;-68
2023/04/30 12:08:18;;;;;;;13.25;7.88;;;17.30;99.90;;;;;;5037047;28;20056;-69
2023/04/30 12:10:44;;;;;;;13.25;6.85;;;17.70;99.90;;;;;;5030847;28;20021;-68
2023/04/30 12:13:13;;;;;;;12.98;6.70;;;17.70;99.90;;;;;;5031824;28;20129;-68
2023/04/30 12:15:39;;;;;;;10.25;6.97;;;17.90;99.90;;;;;;5037180;28;20041;-68
2023/04/30 12:18:14;;;;;;;10.95;6.55;;;17.90;99.90;;;;;;5038049;28;20056;-68
2023/04/30 12:20:40;;;;;;;10.15;5.93;;;17.90;99.90;;;;;;5037309;28;20129;-69
2023/04/30 12:23:07;;;;;;;16.20;6.80;;;17.90;99.90;;;;;;5038150;28;20025;-69
2023/04/30 12:25:40;;;;;;;12.38;6.25;;;17.90;99.90;;;;;;5038183;28;20044;-68
2023/04/30 12:28:06;;;;;;;7.88;5.50;;;18.10;99.90;;;;;;5036642;28;20040;-69
2023/04/30 12:30:32;;;;;;;12.32;6.05;;;18.00;99.90;;;;;;5038243;28;20053;-68
2023/04/30 12:32:59;;;;;;;15.00;5.80;;;18.00;99.90;;;;;;5033663;28;20026;-68
2023/04/30 12:35:27;;;;;;;11.15;6.38;;;17.90;99.90;;;;;;5037968;28;20057;-69
2023/04/30 12:38:04;;;;;;;11.45;5.88;;;17.90;99.90;;;;;;5034878;28;20060;-68
2023/04/30 12:40:29;;;;;;;11.48;5.45;;;18.10;99.90;;;;;;5036557;28;20025;-68
2023/04/30 12:43:07;;;;;;;13.63;6.47;;;18.10;99.90;;;;;;5035472;28;20113;-68
2023/04/30 12:45:52;;;;;;;14.15;6.03;;;18.20;99.90;;;;;;5035386;28;20036;-68